createdAt,value
2017-06-29T00:00:37.776Z,96.00
2017-06-29T00:03:06.309Z,95.80
2017-06-29T00:05:34.932Z,95.80
2017-06-29T00:08:03.434Z,95.90
2017-06-29T00:10:32.188Z,96.10
2017-06-29T00:13:00.683Z,96.30
2017-06-29T00:15:29.173Z,96.50
2017-06-29T00:17:57.678Z,96.80
2017-06-29T00:20:26.165Z,96.70
2017-06-29T00:22:54.695Z,96.70
2017-06-29T00:25:23.157Z,97.00
2017-06-29T00:27:51.674Z,97.00
2017-06-29T00:30:20.172Z,97.00
2017-06-29T00:32:48.674Z,97.20
2017-06-29T00:35:17.219Z,96.70
2017-06-29T00:37:45.706Z,96.70
2017-06-29T00:40:14.276Z,96.50
2017-06-29T00:42:42.891Z,96.40
2017-06-29T00:45:11.606Z,95.80
2017-06-29T00:47:40.094Z,96.30
2017-06-29T00:50:08.601Z,96.50
2017-06-29T00:52:37.092Z,96.40
2017-06-29T00:55:05.549Z,96.20
2017-06-29T00:57:34.093Z,96.70
2017-06-29T01:00:02.594Z,97.10
2017-06-29T01:02:31.086Z,97.30
2017-06-29T01:05:00.429Z,97.50
2017-06-29T01:07:28.943Z,97.50
2017-06-29T01:09:57.579Z,97.70
2017-06-29T01:12:26.810Z,97.90
2017-06-29T01:14:55.417Z,97.90
2017-06-29T01:17:23.906Z,98.10
2017-06-29T01:19:53.156Z,98.20
2017-06-29T01:22:21.651Z,98.10
2017-06-29T01:24:50.148Z,97.80
2017-06-29T01:27:18.654Z,98.00
2017-06-29T01:29:47.304Z,98.00
2017-06-29T01:32:15.964Z,98.00
2017-06-29T01:34:45.259Z,98.00
2017-06-29T01:37:14.591Z,98.70
2017-06-29T01:39:43.117Z,97.90
2017-06-29T01:42:11.655Z,97.70
2017-06-29T01:44:40.348Z,97.60
2017-06-29T01:47:08.838Z,97.20
2017-06-29T01:49:37.349Z,97.00
2017-06-29T01:52:05.901Z,96.90
2017-06-29T01:54:34.479Z,96.40
2017-06-29T01:57:03.062Z,97.10
2017-06-29T01:59:31.773Z,95.60
2017-06-29T02:02:00.437Z,95.90
2017-06-29T02:04:28.933Z,96.70
2017-06-29T02:06:57.609Z,97.00
2017-06-29T02:09:26.130Z,96.80
2017-06-29T02:11:54.719Z,97.10
2017-06-29T02:14:23.262Z,97.00
2017-06-29T02:16:51.825Z,96.90
2017-06-29T02:19:21.122Z,96.70
2017-06-29T02:21:50.338Z,97.00
2017-06-29T02:24:18.825Z,97.00
2017-06-29T02:26:47.314Z,97.00
2017-06-29T02:29:15.933Z,97.20
2017-06-29T02:31:44.458Z,97.00
2017-06-29T02:34:13.729Z,96.80
2017-06-29T02:36:42.213Z,96.80
2017-06-29T02:39:10.795Z,96.70
2017-06-29T02:41:39.258Z,96.80
2017-06-29T02:44:07.738Z,96.80
2017-06-29T02:46:36.219Z,97.00
2017-06-29T02:49:04.705Z,96.90
2017-06-29T02:51:33.261Z,97.10
2017-06-29T02:54:01.725Z,97.20
2017-06-29T02:56:30.204Z,97.30
2017-06-29T02:58:58.850Z,97.30
2017-06-29T03:01:27.597Z,97.50
2017-06-29T03:03:56.097Z,97.70
2017-06-29T03:06:24.596Z,97.50
2017-06-29T03:08:53.172Z,97.70
2017-06-29T03:11:21.698Z,98.00
2017-06-29T03:13:50.172Z,98.00
2017-06-29T03:16:18.668Z,98.00
2017-06-29T03:18:47.178Z,98.00
2017-06-29T03:21:15.696Z,98.20
2017-06-29T03:23:44.201Z,98.40
2017-06-29T03:26:12.725Z,98.40
2017-06-29T03:28:41.417Z,98.60
2017-06-29T03:31:10.048Z,99.00
2017-06-29T03:33:38.549Z,98.90
2017-06-29T03:36:07.268Z,98.70
2017-06-29T03:38:35.902Z,98.70
2017-06-29T03:41:04.402Z,98.90
2017-06-29T03:43:33.026Z,98.90
2017-06-29T03:46:01.530Z,98.70
2017-06-29T03:48:30.134Z,98.60
2017-06-29T03:50:58.776Z,98.80
2017-06-29T03:53:27.254Z,99.00
2017-06-29T03:55:55.737Z,99.20
2017-06-29T03:58:24.231Z,99.20
2017-06-29T04:00:52.713Z,99.90
2017-06-29T04:03:21.209Z,99.40
2017-06-29T04:05:49.764Z,99.30
2017-06-29T04:08:18.548Z,99.30
2017-06-29T04:10:47.029Z,99.10
2017-06-29T04:13:15.731Z,99.10
2017-06-29T04:15:44.237Z,99.00
2017-06-29T04:18:12.929Z,99.00
2017-06-29T04:20:41.526Z,99.10
2017-06-29T04:23:10.021Z,99.00
2017-06-29T04:25:39.221Z,98.70
2017-06-29T04:28:07.705Z,98.60
2017-06-29T04:30:36.218Z,98.40
2017-06-29T04:33:04.706Z,98.20
2017-06-29T04:35:33.222Z,97.80
2017-06-29T04:38:01.746Z,97.60
2017-06-29T04:40:30.966Z,97.10
2017-06-29T04:42:59.495Z,97.00
2017-06-29T04:45:28.091Z,96.80
2017-06-29T04:47:56.631Z,96.50
2017-06-29T04:50:25.126Z,95.60
2017-06-29T04:52:53.625Z,96.00
2017-06-29T04:55:22.112Z,96.20
2017-06-29T04:57:51.590Z,96.30
2017-06-29T05:00:20.063Z,95.60
2017-06-29T05:02:48.649Z,93.80
2017-06-29T05:05:17.172Z,93.80
2017-06-29T05:07:45.699Z,93.20
2017-06-29T05:10:14.700Z,92.20
2017-06-29T05:12:43.300Z,91.60
2017-06-29T05:15:11.775Z,91.00
2017-06-29T05:17:40.290Z,91.60
2017-06-29T05:20:08.806Z,92.90
2017-06-29T05:22:37.342Z,92.80
2017-06-29T05:25:05.835Z,93.10
2017-06-29T05:27:34.594Z,92.20
2017-06-29T05:30:03.298Z,91.60
2017-06-29T05:32:31.809Z,91.00
2017-06-29T05:35:00.340Z,90.20
2017-06-29T05:37:28.997Z,90.10
2017-06-29T05:39:57.631Z,90.00
2017-06-29T05:42:26.172Z,90.70
2017-06-29T05:44:54.596Z,90.40
2017-06-29T05:47:23.134Z,90.20
2017-06-29T05:49:51.861Z,89.50
2017-06-29T05:52:20.421Z,89.70
2017-06-29T05:54:48.884Z,89.60
2017-06-29T05:57:17.650Z,89.80
2017-06-29T05:59:46.169Z,89.10
2017-06-29T06:02:15.384Z,89.70
2017-06-29T06:04:43.856Z,89.70
2017-06-29T06:07:12.672Z,89.80
2017-06-29T06:09:41.203Z,89.30
2017-06-29T06:12:09.740Z,89.50
2017-06-29T06:14:38.239Z,88.70
2017-06-29T06:17:06.687Z,88.90
2017-06-29T06:19:35.180Z,88.20
2017-06-29T06:22:03.652Z,87.20
2017-06-29T06:24:32.177Z,86.60
2017-06-29T06:27:01.860Z,86.70
2017-06-29T06:29:30.341Z,87.00
2017-06-29T06:31:58.964Z,87.10
2017-06-29T06:34:27.525Z,85.60
2017-06-29T06:36:56.069Z,86.50
2017-06-29T06:39:25.369Z,85.60
2017-06-29T06:41:54.597Z,84.80
2017-06-29T06:44:23.243Z,84.80
2017-06-29T06:46:51.895Z,86.00
2017-06-29T06:49:20.597Z,87.00
2017-06-29T06:51:49.170Z,86.80
2017-06-29T06:54:17.685Z,86.80
2017-06-29T06:56:46.968Z,86.80
2017-06-29T06:59:15.542Z,86.70
2017-06-29T07:01:44.045Z,86.50
2017-06-29T07:04:12.521Z,85.20
2017-06-29T07:06:41.093Z,84.30
2017-06-29T07:09:09.675Z,83.70
2017-06-29T07:11:38.212Z,84.70
2017-06-29T07:14:06.720Z,84.30
2017-06-29T07:16:35.197Z,84.50
2017-06-29T07:19:03.901Z,84.50
2017-06-29T07:21:32.465Z,83.50
2017-06-29T07:24:01.085Z,83.50
2017-06-29T07:26:29.723Z,82.20
2017-06-29T07:29:00.565Z,82.70
2017-06-29T07:31:29.075Z,81.30
2017-06-29T07:34:01.098Z,80.20
2017-06-29T07:36:29.744Z,79.60
2017-06-29T07:38:58.949Z,77.80
2017-06-29T07:41:27.569Z,79.00
2017-06-29T07:43:57.544Z,80.20
2017-06-29T07:46:26.098Z,80.20
2017-06-29T07:48:54.627Z,79.10
2017-06-29T07:51:23.255Z,79.20
2017-06-29T07:53:51.803Z,78.10
2017-06-29T07:56:20.541Z,78.40
2017-06-29T07:58:49.533Z,77.60
2017-06-29T08:01:18.215Z,78.10
2017-06-29T08:03:46.733Z,77.30
2017-06-29T08:06:15.545Z,75.60
2017-06-29T08:08:44.091Z,74.20
2017-06-29T08:11:12.620Z,76.70
2017-06-29T08:13:41.109Z,75.70
2017-06-29T08:16:09.612Z,76.60
2017-06-29T08:18:38.261Z,77.90
2017-06-29T08:21:06.786Z,77.60
2017-06-29T08:23:35.380Z,77.10
2017-06-29T08:26:03.964Z,75.00
2017-06-29T08:28:32.541Z,72.50
2017-06-29T08:31:00.516Z,70.70
2017-06-29T08:33:29.029Z,70.10
2017-06-29T08:35:57.604Z,68.40
2017-06-29T08:38:26.178Z,66.20
2017-06-29T08:40:54.745Z,65.50
2017-06-29T08:43:23.212Z,62.80
2017-06-29T08:45:51.680Z,59.90
2017-06-29T08:48:20.243Z,60.00
2017-06-29T08:50:48.769Z,62.60
2017-06-29T08:53:17.254Z,62.70
2017-06-29T08:55:45.775Z,63.20
2017-06-29T08:58:14.369Z,63.30
2017-06-29T09:00:42.906Z,65.00
2017-06-29T09:03:11.571Z,64.20
2017-06-29T09:05:40.182Z,60.70
2017-06-29T09:08:08.644Z,61.60
2017-06-29T09:10:37.345Z,62.20
2017-06-29T09:13:05.841Z,63.40
2017-06-29T09:15:34.328Z,65.60
2017-06-29T09:18:07.401Z,67.10
2017-06-29T09:20:36.152Z,67.90
2017-06-29T09:23:04.746Z,65.70
2017-06-29T09:25:34.150Z,67.60
2017-06-29T09:28:02.600Z,67.60
2017-06-29T09:30:31.126Z,67.20
2017-06-29T09:32:59.640Z,68.60
2017-06-29T09:35:28.105Z,68.60
2017-06-29T09:37:57.105Z,68.50
2017-06-29T09:40:25.606Z,69.10
2017-06-29T09:42:54.056Z,69.80
2017-06-29T09:45:22.562Z,70.40
2017-06-29T09:47:51.263Z,68.50
2017-06-29T09:50:19.939Z,70.00
2017-06-29T09:52:48.609Z,69.40
2017-06-29T09:55:17.197Z,68.10
2017-06-29T09:57:45.677Z,68.30
2017-06-29T10:00:14.180Z,70.00
2017-06-29T10:02:42.777Z,69.30
2017-06-29T10:05:11.400Z,68.50
2017-06-29T10:07:40.682Z,65.00
2017-06-29T10:10:09.415Z,65.00
2017-06-29T10:12:38.210Z,59.70
2017-06-29T10:15:06.867Z,59.10
2017-06-29T10:17:35.345Z,59.10
2017-06-29T10:20:03.843Z,58.30
2017-06-29T10:22:32.349Z,56.20
2017-06-29T10:25:00.821Z,55.70
2017-06-29T10:27:29.691Z,53.70
2017-06-29T10:29:58.232Z,55.50
2017-06-29T10:32:26.788Z,55.60
2017-06-29T10:34:55.328Z,57.30
2017-06-29T10:37:24.578Z,54.70
2017-06-29T10:39:53.246Z,54.60
2017-06-29T10:42:22.134Z,54.40
2017-06-29T10:44:51.750Z,57.10
2017-06-29T10:47:20.609Z,56.80
2017-06-29T10:49:49.819Z,51.90
2017-06-29T10:52:18.320Z,51.80
2017-06-29T10:54:46.154Z,51.70
2017-06-29T10:57:17.118Z,48.90
2017-06-29T10:59:46.013Z,49.70
2017-06-29T11:02:14.516Z,49.40
2017-06-29T11:04:42.980Z,49.40
2017-06-29T11:07:11.563Z,51.10
2017-06-29T11:09:40.105Z,53.30
2017-06-29T11:12:08.578Z,53.80
2017-06-29T11:14:37.012Z,54.30
2017-06-29T11:17:05.531Z,54.40
2017-06-29T11:19:34.280Z,53.00
2017-06-29T11:22:03.017Z,53.60
2017-06-29T11:24:31.732Z,53.20
2017-06-29T11:27:01.088Z,50.40
2017-06-29T11:29:29.569Z,50.40
2017-06-29T11:31:58.317Z,53.20
2017-06-29T11:34:27.311Z,53.20
2017-06-29T11:36:55.769Z,53.20
2017-06-29T11:39:25.038Z,54.10
2017-06-29T11:41:53.735Z,54.00
2017-06-29T11:44:22.257Z,55.80
2017-06-29T11:46:50.751Z,56.00
2017-06-29T11:49:19.418Z,54.30
2017-06-29T11:51:47.964Z,54.30
2017-06-29T11:54:16.905Z,53.80
2017-06-29T11:56:45.419Z,55.20
2017-06-29T11:59:13.931Z,56.30
2017-06-29T12:01:42.509Z,56.90
2017-06-29T12:04:11.029Z,55.50
2017-06-29T12:06:40.292Z,56.00
2017-06-29T12:09:08.804Z,56.00
2017-06-29T12:11:36.720Z,54.10
2017-06-29T12:14:15.154Z,55.00
2017-06-29T12:16:44.013Z,55.10
2017-06-29T12:19:12.622Z,54.60
2017-06-29T12:21:41.157Z,52.20
2017-06-29T12:24:09.841Z,51.80
2017-06-29T12:26:38.473Z,51.50
2017-06-29T12:29:07.040Z,51.50
2017-06-29T12:31:34.915Z,50.80
2017-06-29T12:34:03.097Z,48.80
2017-06-29T12:36:32.520Z,47.60
2017-06-29T12:39:00.397Z,47.80
2017-06-29T12:41:28.316Z,50.30
2017-06-29T12:43:56.803Z,51.60
2017-06-29T12:46:26.782Z,51.70
2017-06-29T12:48:55.308Z,52.20
2017-06-29T12:51:23.640Z,54.10
2017-06-29T12:53:52.910Z,56.50
2017-06-29T12:56:21.397Z,56.50
2017-06-29T12:58:50.132Z,56.40
2017-06-29T13:01:18.626Z,56.80
2017-06-29T13:03:47.140Z,54.50
2017-06-29T13:06:15.849Z,53.90
2017-06-29T13:08:44.486Z,53.90
2017-06-29T13:11:13.013Z,51.20
2017-06-29T13:13:40.877Z,50.10
2017-06-29T13:16:08.748Z,50.50
2017-06-29T13:18:37.406Z,50.10
2017-06-29T13:30:50.640Z,50.10
2017-06-29T13:33:18.553Z,47.60
2017-06-29T13:35:47.243Z,52.60
2017-06-29T13:38:15.792Z,52.30
2017-06-29T13:40:44.362Z,53.50
2017-06-29T13:43:12.973Z,53.70
2017-06-29T13:54:36.644Z,52.60
2017-06-29T13:57:05.094Z,52.90
2017-06-29T13:59:33.734Z,57.00
2017-06-29T14:02:02.484Z,54.00
2017-06-29T14:14:16.046Z,53.30
2017-06-29T14:16:47.122Z,56.80
2017-06-29T14:19:15.963Z,56.80
2017-06-29T14:25:18.352Z,56.70
2017-06-29T14:27:47.182Z,58.20
2017-06-29T14:30:15.652Z,56.00
2017-06-29T14:32:44.985Z,58.00
2017-06-29T14:35:13.952Z,57.90
2017-06-29T14:46:52.541Z,58.10
2017-06-29T14:49:21.748Z,60.50
2017-06-29T14:51:50.282Z,60.50
2017-06-29T14:54:18.837Z,62.30
2017-06-29T14:56:47.552Z,59.60
2017-06-29T15:09:01.730Z,60.20
2017-06-29T15:11:30.196Z,60.20
2017-06-29T15:13:58.750Z,62.60
2017-06-29T15:16:27.529Z,63.30
2017-06-29T15:18:56.016Z,64.00
2017-06-29T15:21:24.736Z,64.20
2017-06-29T15:23:53.448Z,64.50
2017-06-29T15:26:22.544Z,64.90
2017-06-29T15:28:51.228Z,65.00
2017-06-29T15:31:26.017Z,65.20
2017-06-29T15:43:40.029Z,65.10
2017-06-29T15:46:09.272Z,67.50
2017-06-29T15:48:37.761Z,66.70
2017-06-29T15:51:06.257Z,67.00
2017-06-29T15:53:34.795Z,65.80
2017-06-29T15:56:03.386Z,65.80
2017-06-29T15:58:31.917Z,66.40
2017-06-29T16:01:00.575Z,65.60
2017-06-29T16:03:29.209Z,65.80
2017-06-29T16:05:57.837Z,65.60
2017-06-29T16:08:26.286Z,66.90
2017-06-29T16:10:54.735Z,65.60
2017-06-29T16:13:23.200Z,65.60
2017-06-29T16:15:51.683Z,65.80
2017-06-29T16:28:06.014Z,66.10
2017-06-29T16:40:19.584Z,66.60
2017-06-29T16:42:48.110Z,67.10
2017-06-29T16:45:16.966Z,68.00
2017-06-29T16:47:47.246Z,68.20
2017-06-29T16:50:15.936Z,68.30
2017-06-29T17:02:30.173Z,68.50
2017-06-29T17:04:58.641Z,69.10
2017-06-29T17:07:27.120Z,69.30
2017-06-29T17:09:55.826Z,68.80
2017-06-29T17:12:24.988Z,69.50
2017-06-29T17:14:55.384Z,69.50
2017-06-29T17:17:23.847Z,70.00
2017-06-29T17:19:52.352Z,69.90
2017-06-29T17:22:21.031Z,69.60
2017-06-29T17:24:49.817Z,70.40
2017-06-29T17:37:03.673Z,70.80
2017-06-29T17:39:32.540Z,71.30
2017-06-29T17:42:01.048Z,74.00
2017-06-29T17:57:30.257Z,73.40
2017-06-29T18:12:55.995Z,74.90
2017-06-29T18:25:09.673Z,74.90
2017-06-29T18:27:38.210Z,83.50
2017-06-29T18:30:07.090Z,90.70
2017-06-29T18:32:35.661Z,89.80
2017-06-29T18:35:04.596Z,91.20
2017-06-29T18:37:34.401Z,92.00
2017-06-29T18:40:02.964Z,91.80
2017-06-29T18:42:31.659Z,92.40
2017-06-29T18:45:00.458Z,92.10
2017-06-29T18:47:29.005Z,91.90
2017-06-29T18:49:57.739Z,92.30
2017-06-29T18:52:27.982Z,92.90
2017-06-29T19:06:07.684Z,92.60
2017-06-29T19:08:41.648Z,93.20
2017-06-29T19:11:11.249Z,94.60
2017-06-29T19:13:42.658Z,94.80
2017-06-29T19:16:12.042Z,95.10
2017-06-29T19:18:47.311Z,94.60
2017-06-29T19:31:01.463Z,95.30
2017-06-29T19:33:30.721Z,95.50
2017-06-29T19:35:59.278Z,95.50
